sensor_id;sensor_type;location;lat;lon;timestamp;pressure;altitude;pressure_sealevel;temperature;humidity
58686;BME280;44465;53.206;-6.106;2023-04-03T00:00:30;102793.56;;;20.95;51.49
58686;BME280;44465;53.206;-6.106;2023-04-03T00:02:57;102870.97;;;21.45;51.38
58686;BME280;44465;53.206;-6.106;2023-04-03T00:05:23;102862.03;;;21.45;51.47
58686;BME280;44465;53.206;-6.106;2023-04-03T00:07:51;102760.75;;;20.87;51.29
58686;BME280;44465;53.206;-6.106;2023-04-03T00:12:42;102794.25;;;21.03;51.64
58686;BME280;44465;53.206;-6.106;2023-04-03T00:15:09;102751.91;;;20.83;51.34
58686;BME280;44465;53.206;-6.106;2023-04-03T00:17:35;102736.91;;;20.74;51.63
58686;BME280;44465;53.206;-6.106;2023-04-03T00:20:02;102836.31;;;21.37;51.41
58686;BME280;44465;53.206;-6.106;2023-04-03T00:22:28;102837.41;;;21.30;51.63
58686;BME280;44465;53.206;-6.106;2023-04-03T00:24:55;102707.81;;;20.59;51.50
58686;BME280;44465;53.206;-6.106;2023-04-03T00:27:21;102734.25;;;20.74;51.24
58686;BME280;44465;53.206;-6.106;2023-04-03T00:29:50;102830.16;;;21.34;51.28
58686;BME280;44465;53.206;-6.106;2023-04-03T00:32:18;102724.41;;;20.73;51.47
58686;BME280;44465;53.206;-6.106;2023-04-03T00:34:44;102717.44;;;20.66;51.49
58686;BME280;44465;53.206;-6.106;2023-04-03T00:37:13;102716.44;;;20.70;51.22
58686;BME280;44465;53.206;-6.106;2023-04-03T00:39:39;102790.44;;;21.14;51.29
58686;BME280;44465;53.206;-6.106;2023-04-03T00:42:05;102714.78;;;20.66;51.07
58686;BME280;44465;53.206;-6.106;2023-04-03T00:46:57;102715.50;;;20.73;51.16
58686;BME280;44465;53.206;-6.106;2023-04-03T00:49:23;102729.69;;;20.78;51.42
58686;BME280;44465;53.206;-6.106;2023-04-03T00:51:49;102707.59;;;20.67;51.22
58686;BME280;44465;53.206;-6.106;2023-04-03T00:54:15;102802.78;;;21.21;51.31
58686;BME280;44465;53.206;-6.106;2023-04-03T00:56:44;102761.38;;;20.98;51.39
58686;BME280;44465;53.206;-6.106;2023-04-03T00:59:17;102814.25;;;21.26;51.30
58686;BME280;44465;53.206;-6.106;2023-04-03T01:01:48;102814.25;;;21.26;51.33
58686;BME280;44465;53.206;-6.106;2023-04-03T01:04:30;102809.81;;;21.25;51.19
58686;BME280;44465;53.206;-6.106;2023-04-03T01:07:02;102807.13;;;21.25;51.23
58686;BME280;44465;53.206;-6.106;2023-04-03T01:09:33;102709.28;;;20.74;51.09
58686;BME280;44465;53.206;-6.106;2023-04-03T01:12:22;102697.81;;;20.67;51.21
58686;BME280;44465;53.206;-6.106;2023-04-03T01:15:22;102798.25;;;21.23;51.01
58686;BME280;44465;53.206;-6.106;2023-04-03T01:17:54;102752.53;;;20.93;51.20
58686;BME280;44465;53.206;-6.106;2023-04-03T01:25:48;102681.91;;;20.59;51.00
58686;BME280;44465;53.206;-6.106;2023-04-03T01:28:26;102729.59;;;20.83;50.76
58686;BME280;44465;53.206;-6.106;2023-04-03T01:31:14;102784.97;;;21.18;51.07
58686;BME280;44465;53.206;-6.106;2023-04-03T01:33:43;102694.34;;;20.62;50.91
58686;BME280;44465;53.206;-6.106;2023-04-03T01:36:31;102791.28;;;21.16;50.97
58686;BME280;44465;53.206;-6.106;2023-04-03T01:38:58;102734.75;;;20.90;51.11
58686;BME280;44465;53.206;-6.106;2023-04-03T01:41:25;102682.97;;;20.52;51.11
58686;BME280;44465;53.206;-6.106;2023-04-03T01:43:56;102785.03;;;21.17;51.24
58686;BME280;44465;53.206;-6.106;2023-04-03T01:46:24;102715.47;;;20.76;50.96
58686;BME280;44465;53.206;-6.106;2023-04-03T01:48:53;102675.78;;;20.54;50.99
58686;BME280;44465;53.206;-6.106;2023-04-03T01:51:20;102657.16;;;20.50;51.21
58686;BME280;44465;53.206;-6.106;2023-04-03T01:53:46;102754.13;;;21.02;51.10
58686;BME280;44465;53.206;-6.106;2023-04-03T01:56:12;102774.34;;;21.15;51.13
58686;BME280;44465;53.206;-6.106;2023-04-03T01:58:39;102710.94;;;20.78;51.18
58686;BME280;44465;53.206;-6.106;2023-04-03T02:01:07;102661.59;;;20.51;51.11
58686;BME280;44465;53.206;-6.106;2023-04-03T02:03:33;102758.47;;;21.06;51.15
58686;BME280;44465;53.206;-6.106;2023-04-03T02:05:59;102678.28;;;20.62;51.07
58686;BME280;44465;53.206;-6.106;2023-04-03T02:08:25;102655.47;;;20.45;50.86
58686;BME280;44465;53.206;-6.106;2023-04-03T02:10:51;102722.34;;;20.86;51.04
58686;BME280;44465;53.206;-6.106;2023-04-03T02:13:18;102738.25;;;20.94;50.70
58686;BME280;44465;53.206;-6.106;2023-04-03T02:15:47;102694.13;;;20.71;50.96
58686;BME280;44465;53.206;-6.106;2023-04-03T02:18:16;102662.38;;;20.54;50.86
58686;BME280;44465;53.206;-6.106;2023-04-03T02:20:42;102692.34;;;20.72;51.23
58686;BME280;44465;53.206;-6.106;2023-04-03T02:23:17;102750.38;;;21.09;51.11
58686;BME280;44465;53.206;-6.106;2023-04-03T02:25:43;102736.25;;;21.02;51.25
58686;BME280;44465;53.206;-6.106;2023-04-03T02:28:11;102637.66;;;20.44;51.17
58686;BME280;44465;53.206;-6.106;2023-04-03T02:30:45;102713.28;;;20.92;51.22
58686;BME280;44465;53.206;-6.106;2023-04-03T02:33:11;102649.00;;;20.56;51.18
58686;BME280;44465;53.206;-6.106;2023-04-03T02:35:38;102711.53;;;20.91;50.95
58686;BME280;44465;53.206;-6.106;2023-04-03T02:38:04;102628.72;;;20.45;50.81
58686;BME280;44465;53.206;-6.106;2023-04-03T02:40:36;102678.03;;;20.74;50.66
58686;BME280;44465;53.206;-6.106;2023-04-03T02:43:07;102676.38;;;20.67;51.20
58686;BME280;44465;53.206;-6.106;2023-04-03T02:45:33;102729.13;;;21.01;51.08
58686;BME280;44465;53.206;-6.106;2023-04-03T02:47:59;102644.56;;;20.55;50.89
58686;BME280;44465;53.206;-6.106;2023-04-03T02:50:25;102616.44;;;20.37;50.83
58686;BME280;44465;53.206;-6.106;2023-04-03T02:52:53;102630.53;;;20.43;50.83
58686;BME280;44465;53.206;-6.106;2023-04-03T02:59:26;102655.16;;;20.59;50.98
58686;BME280;44465;53.206;-6.106;2023-04-03T03:01:55;102613.81;;;20.35;50.88
58686;BME280;44465;53.206;-6.106;2023-04-03T03:04:23;102615.34;;;20.44;51.14
58686;BME280;44465;53.206;-6.106;2023-04-03T03:06:53;102610.16;;;20.38;51.19
58686;BME280;44465;53.206;-6.106;2023-04-03T03:13:17;102612.09;;;20.33;50.93
58686;BME280;44465;53.206;-6.106;2023-04-03T03:15:55;102702.50;;;20.95;51.26
58686;BME280;44465;53.206;-6.106;2023-04-03T03:18:42;102598.81;;;20.28;51.04
58686;BME280;44465;53.206;-6.106;2023-04-03T03:21:11;102635.69;;;20.53;51.04
58686;BME280;44465;53.206;-6.106;2023-04-03T03:24:18;102705.22;;;20.94;51.03
58686;BME280;44465;53.206;-6.106;2023-04-03T03:26:46;102637.31;;;20.58;51.10
58686;BME280;44465;53.206;-6.106;2023-04-03T03:29:14;102603.91;;;20.39;51.37
58686;BME280;44465;53.206;-6.106;2023-04-03T03:31:40;102577.47;;;20.25;51.22
58686;BME280;44465;53.206;-6.106;2023-04-03T03:34:07;102589.72;;;20.34;50.99
58686;BME280;44465;53.206;-6.106;2023-04-03T03:36:38;102578.22;;;20.30;51.01
58686;BME280;44465;53.206;-6.106;2023-04-03T03:39:04;102688.25;;;20.95;51.12
58686;BME280;44465;53.206;-6.106;2023-04-03T03:41:35;102573.88;;;20.26;51.02
58686;BME280;44465;53.206;-6.106;2023-04-03T03:44:30;102683.00;;;20.90;51.20
58686;BME280;44465;53.206;-6.106;2023-04-03T03:50:46;102665.47;;;20.76;51.50
58686;BME280;44465;53.206;-6.106;2023-04-03T03:57:20;102619.63;;;20.53;51.44
58686;BME280;44465;53.206;-6.106;2023-04-03T03:59:50;102569.47;;;20.25;51.22
58686;BME280;44465;53.206;-6.106;2023-04-03T04:02:22;102670.56;;;20.87;51.17
58686;BME280;44465;53.206;-6.106;2023-04-03T04:04:53;102562.44;;;20.19;51.00
58686;BME280;44465;53.206;-6.106;2023-04-03T04:07:22;102565.88;;;20.24;51.03
58686;BME280;44465;53.206;-6.106;2023-04-03T04:09:56;102614.31;;;20.50;51.04
58686;BME280;44465;53.206;-6.106;2023-04-03T04:16:11;102652.19;;;20.72;51.17
58686;BME280;44465;53.206;-6.106;2023-04-03T04:18:40;102658.44;;;20.71;51.52
58686;BME280;44465;53.206;-6.106;2023-04-03T04:21:27;102565.13;;;20.19;50.89
58686;BME280;44465;53.206;-6.106;2023-04-03T04:27:42;102604.75;;;20.41;51.19
58686;BME280;44465;53.206;-6.106;2023-04-03T04:30:19;102669.81;;;20.81;51.15
58686;BME280;44465;53.206;-6.106;2023-04-03T04:33:04;102674.25;;;20.82;51.22
58686;BME280;44465;53.206;-6.106;2023-04-03T04:35:36;102558.13;;;20.13;51.37
58686;BME280;44465;53.206;-6.106;2023-04-03T04:38:03;102667.16;;;20.81;51.50
58686;BME280;44465;53.206;-6.106;2023-04-03T04:40:34;102558.03;;;20.18;51.23
58686;BME280;44465;53.206;-6.106;2023-04-03T04:43:00;102550.03;;;20.17;51.29
58686;BME280;44465;53.206;-6.106;2023-04-03T04:46:17;102549.19;;;20.14;51.22
58686;BME280;44465;53.206;-6.106;2023-04-03T04:48:51;102603.78;;;20.43;51.16
58686;BME280;44465;53.206;-6.106;2023-04-03T04:51:19;102572.88;;;20.30;50.98
58686;BME280;44465;53.206;-6.106;2023-04-03T04:53:55;102557.16;;;20.16;51.19
58686;BME280;44465;53.206;-6.106;2023-04-03T04:56:28;102623.88;;;20.60;51.11
58686;BME280;44465;53.206;-6.106;2023-04-03T04:59:01;102575.56;;;20.30;51.12
58686;BME280;44465;53.206;-6.106;2023-04-03T05:01:42;102543.97;;;20.08;51.12
58686;BME280;44465;53.206;-6.106;2023-04-03T05:07:59;102660.22;;;20.70;51.30
58686;BME280;44465;53.206;-6.106;2023-04-03T05:10:32;102662.81;;;20.75;51.57
58686;BME280;44465;53.206;-6.106;2023-04-03T05:13:01;102667.31;;;20.74;50.97
58686;BME280;44465;53.206;-6.106;2023-04-03T05:15:32;102556.44;;;20.09;51.44
58686;BME280;44465;53.206;-6.106;2023-04-03T05:17:59;102553.81;;;20.08;51.04
58686;BME280;44465;53.206;-6.106;2023-04-03T05:20:33;102544.94;;;20.06;51.33
58686;BME280;44465;53.206;-6.106;2023-04-03T05:23:05;102563.47;;;20.13;51.13
58686;BME280;44465;53.206;-6.106;2023-04-03T05:28:48;102558.19;;;20.12;51.27
58686;BME280;44465;53.206;-6.106;2023-04-03T05:31:40;102557.34;;;20.08;51.26
58686;BME280;44465;53.206;-6.106;2023-04-03T05:34:11;102576.56;;;20.26;50.95
58686;BME280;44465;53.206;-6.106;2023-04-03T05:36:44;102551.00;;;20.12;50.96
58686;BME280;44465;53.206;-6.106;2023-04-03T05:43:38;102572.41;;;20.12;51.30
58686;BME280;44465;53.206;-6.106;2023-04-03T05:46:20;102672.69;;;20.73;51.00
58686;BME280;44465;53.206;-6.106;2023-04-03T05:48:51;102612.94;;;20.33;51.40
58686;BME280;44465;53.206;-6.106;2023-04-03T05:51:36;102640.22;;;20.49;51.05
58686;BME280;44465;53.206;-6.106;2023-04-03T05:54:19;102560.16;;;20.02;51.52
58686;BME280;44465;53.206;-6.106;2023-04-03T05:56:51;102581.28;;;20.14;51.50
58686;BME280;44465;53.206;-6.106;2023-04-03T06:03:00;102560.31;;;19.96;51.11
58686;BME280;44465;53.206;-6.106;2023-04-03T06:05:31;102655.31;;;20.52;51.27
58686;BME280;44465;53.206;-6.106;2023-04-03T06:08:05;102656.28;;;20.49;50.90
58686;BME280;44465;53.206;-6.106;2023-04-03T06:14:20;102582.34;;;20.07;51.37
58686;BME280;44465;53.206;-6.106;2023-04-03T06:16:50;102565.59;;;19.99;51.31
58686;BME280;44465;53.206;-6.106;2023-04-03T06:19:27;102553.16;;;19.96;50.98
58686;BME280;44465;53.206;-6.106;2023-04-03T06:21:56;102595.41;;;20.20;51.33
58686;BME280;44465;53.206;-6.106;2023-04-03T06:24:35;102641.25;;;20.43;51.03
58686;BME280;44465;53.206;-6.106;2023-04-03T06:27:11;102556.66;;;20.00;51.11
58686;BME280;44465;53.206;-6.106;2023-04-03T06:29:50;102676.38;;;20.67;51.29
58686;BME280;44465;53.206;-6.106;2023-04-03T06:32:23;102675.50;;;20.67;51.42
58686;BME280;44465;53.206;-6.106;2023-04-03T06:35:16;102566.38;;;20.04;51.43
58686;BME280;44465;53.206;-6.106;2023-04-03T06:37:42;102674.63;;;20.66;51.22
58686;BME280;44465;53.206;-6.106;2023-04-03T06:40:21;102582.38;;;20.06;51.43
58686;BME280;44465;53.206;-6.106;2023-04-03T06:42:47;102600.72;;;20.23;51.29
58686;BME280;44465;53.206;-6.106;2023-04-03T06:45:13;102566.47;;;19.99;50.92
58686;BME280;44465;53.206;-6.106;2023-04-03T06:48:02;102674.63;;;20.66;51.08
58686;BME280;44465;53.206;-6.106;2023-04-03T06:50:30;102687.97;;;20.68;50.98
58686;BME280;44465;53.206;-6.106;2023-04-03T06:52:56;102570.88;;;20.02;50.97
58686;BME280;44465;53.206;-6.106;2023-04-03T06:55:24;102592.00;;;20.14;51.15
58686;BME280;44465;53.206;-6.106;2023-04-03T06:57:52;102572.59;;;20.05;50.96
58686;BME280;44465;53.206;-6.106;2023-04-03T07:00:23;102551.47;;;19.92;50.81
58686;BME280;44465;53.206;-6.106;2023-04-03T07:03:04;102556.75;;;19.97;51.07
58686;BME280;44465;53.206;-6.106;2023-04-03T07:05:43;102651.78;;;20.50;51.09
58686;BME280;44465;53.206;-6.106;2023-04-03T07:08:14;102574.44;;;20.01;51.16
58686;BME280;44465;53.206;-6.106;2023-04-03T07:10:42;102642.16;;;20.42;51.11
58686;BME280;44465;53.206;-6.106;2023-04-03T07:13:12;102692.44;;;20.67;51.38
58686;BME280;44465;53.206;-6.106;2023-04-03T07:15:37;102689.78;;;20.66;51.14
58686;BME280;44465;53.206;-6.106;2023-04-03T07:18:17;102677.31;;;20.65;51.28
58686;BME280;44465;53.206;-6.106;2023-04-03T07:20:44;102577.91;;;20.06;51.21
58686;BME280;44465;53.206;-6.106;2023-04-03T07:23:10;102662.44;;;20.53;51.21
58686;BME280;44465;53.206;-6.106;2023-04-03T07:25:37;102600.78;;;20.20;51.32
58686;BME280;44465;53.206;-6.106;2023-04-03T07:28:03;102685.28;;;20.68;51.33
58686;BME280;44465;53.206;-6.106;2023-04-03T07:30:32;102578.84;;;20.04;51.29
58686;BME280;44465;53.206;-6.106;2023-04-03T07:32:58;102632.53;;;20.35;51.19
58686;BME280;44465;53.206;-6.106;2023-04-03T07:35:24;102685.25;;;20.69;51.14
58686;BME280;44465;53.206;-6.106;2023-04-03T07:37:50;102645.63;;;20.48;51.27
58686;BME280;44465;53.206;-6.106;2023-04-03T07:40:16;102602.63;;;20.18;51.31
58686;BME280;44465;53.206;-6.106;2023-04-03T07:42:42;102688.84;;;20.68;51.33
58686;BME280;44465;53.206;-6.106;2023-04-03T07:45:08;102586.00;;;20.03;51.20
58686;BME280;44465;53.206;-6.106;2023-04-03T07:47:34;102610.53;;;20.22;51.28
58686;BME280;44465;53.206;-6.106;2023-04-03T07:50:00;102602.63;;;20.18;51.19
58686;BME280;44465;53.206;-6.106;2023-04-03T07:52:26;102599.22;;;20.09;51.45
58686;BME280;44465;53.206;-6.106;2023-04-03T07:54:52;102609.75;;;20.17;51.33
58686;BME280;44465;53.206;-6.106;2023-04-03T07:57:18;102609.72;;;20.19;51.17
58686;BME280;44465;53.206;-6.106;2023-04-03T07:59:49;102675.66;;;20.60;51.31
58686;BME280;44465;53.206;-6.106;2023-04-03T08:02:18;102586.84;;;20.05;51.09
58686;BME280;44465;53.206;-6.106;2023-04-03T08:04:44;102579.84;;;19.98;51.33
58686;BME280;44465;53.206;-6.106;2023-04-03T08:07:10;102596.66;;;20.05;51.40
58686;BME280;44465;53.206;-6.106;2023-04-03T08:09:36;102672.13;;;20.58;51.18
58686;BME280;44465;53.206;-6.106;2023-04-03T08:12:02;102590.38;;;20.07;51.15
58686;BME280;44465;53.206;-6.106;2023-04-03T08:14:32;102699.47;;;20.71;51.25
58686;BME280;44465;53.206;-6.106;2023-04-03T08:17:00;102709.25;;;20.72;51.41
58686;BME280;44465;53.206;-6.106;2023-04-03T08:19:26;102689.06;;;20.59;51.34
58686;BME280;44465;53.206;-6.106;2023-04-03T08:21:54;102710.19;;;20.71;51.08
58686;BME280;44465;53.206;-6.106;2023-04-03T08:24:20;102680.41;;;20.48;51.35
58686;BME280;44465;53.206;-6.106;2023-04-03T08:26:46;102673.31;;;20.45;51.30
58686;BME280;44465;53.206;-6.106;2023-04-03T08:29:12;102622.16;;;20.20;51.28
58686;BME280;44465;53.206;-6.106;2023-04-03T08:31:38;102683.84;;;20.53;51.37
58686;BME280;44465;53.206;-6.106;2023-04-03T08:34:04;102654.81;;;20.36;51.25
58686;BME280;44465;53.206;-6.106;2023-04-03T08:36:30;102660.84;;;20.45;51.22
58686;BME280;44465;53.206;-6.106;2023-04-03T08:38:57;102706.59;;;20.72;51.34
58686;BME280;44465;53.206;-6.106;2023-04-03T08:41:33;102615.28;;;20.09;51.29
58686;BME280;44465;53.206;-6.106;2023-04-03T08:46:58;102641.69;;;20.25;51.42
58686;BME280;44465;53.206;-6.106;2023-04-03T08:49:48;102617.13;;;20.07;51.51
58686;BME280;44465;53.206;-6.106;2023-04-03T08:58:09;102726.25;;;20.71;51.39
58686;BME280;44465;53.206;-6.106;2023-04-03T09:00:46;102646.13;;;20.26;51.34
58686;BME280;44465;53.206;-6.106;2023-04-03T09:03:17;102683.09;;;20.48;51.79
58686;BME280;44465;53.206;-6.106;2023-04-03T09:08:31;102686.56;;;20.51;51.33
58686;BME280;44465;53.206;-6.106;2023-04-03T09:11:40;102636.41;;;20.22;51.44
58686;BME280;44465;53.206;-6.106;2023-04-03T09:14:27;102704.25;;;20.58;51.30
58686;BME280;44465;53.206;-6.106;2023-04-03T09:17:08;102622.22;;;20.18;51.26
58686;BME280;44465;53.206;-6.106;2023-04-03T09:20:02;102620.50;;;20.14;51.57
58686;BME280;44465;53.206;-6.106;2023-04-03T09:22:33;102646.88;;;20.31;51.16
58686;BME280;44465;53.206;-6.106;2023-04-03T09:25:15;102685.69;;;20.51;51.25
58686;BME280;44465;53.206;-6.106;2023-04-03T09:27:45;102708.50;;;20.67;51.61
58686;BME280;44465;53.206;-6.106;2023-04-03T09:30:17;102606.47;;;20.04;51.28
58686;BME280;44465;53.206;-6.106;2023-04-03T09:32:47;102634.72;;;20.18;51.25
58686;BME280;44465;53.206;-6.106;2023-04-03T09:35:33;102715.50;;;20.74;51.21
58686;BME280;44465;53.206;-6.106;2023-04-03T09:38:14;102610.41;;;19.88;48.15
58686;BME280;44465;53.206;-6.106;2023-04-03T09:40:44;102636.81;;;20.03;50.33
58686;BME280;44465;53.206;-6.106;2023-04-03T09:43:25;102627.88;;;20.04;50.05
58686;BME280;44465;53.206;-6.106;2023-04-03T09:45:55;102666.41;;;20.36;50.57
58686;BME280;44465;53.206;-6.106;2023-04-03T09:48:25;102609.22;;;20.01;50.82
58686;BME280;44465;53.206;-6.106;2023-04-03T09:51:04;102592.41;;;19.96;50.92
58686;BME280;44465;53.206;-6.106;2023-04-03T09:53:41;102679.47;;;20.50;50.75
58686;BME280;44465;53.206;-6.106;2023-04-03T09:58:47;102662.88;;;20.34;50.68
58686;BME280;44465;53.206;-6.106;2023-04-03T10:01:37;102716.56;;;20.66;50.70
58686;BME280;44465;53.206;-6.106;2023-04-03T10:06:43;102599.53;;;19.95;50.66
58686;BME280;44465;53.206;-6.106;2023-04-03T10:09:32;102660.44;;;20.23;50.00
58686;BME280;44465;53.206;-6.106;2023-04-03T10:12:04;102649.00;;;20.17;49.91
58686;BME280;44465;53.206;-6.106;2023-04-03T10:14:33;102605.78;;;19.94;50.09
58686;BME280;44465;53.206;-6.106;2023-04-03T10:19:34;102628.63;;;20.09;50.48
58686;BME280;44465;53.206;-6.106;2023-04-03T10:22:04;102599.59;;;19.94;50.82
58686;BME280;44465;53.206;-6.106;2023-04-03T10:27:06;102721.03;;;20.65;50.73
58686;BME280;44465;53.206;-6.106;2023-04-03T10:29:39;102673.41;;;20.40;50.90
58686;BME280;44465;53.206;-6.106;2023-04-03T10:38:15;102691.84;;;20.54;51.08
58686;BME280;44465;53.206;-6.106;2023-04-03T10:41:03;102711.19;;;20.66;50.85
58686;BME280;44465;53.206;-6.106;2023-04-03T10:43:45;102718.31;;;20.68;50.90
58686;BME280;44465;53.206;-6.106;2023-04-03T10:49:10;102719.22;;;20.67;51.08
58686;BME280;44465;53.206;-6.106;2023-04-03T10:51:48;102717.38;;;20.69;51.14
58686;BME280;44465;53.206;-6.106;2023-04-03T10:56:57;102639.91;;;20.24;51.04
58686;BME280;44465;53.206;-6.106;2023-04-03T10:59:40;102721.81;;;20.70;50.97
58686;BME280;44465;53.206;-6.106;2023-04-03T11:02:59;102716.44;;;20.70;50.76
58686;BME280;44465;53.206;-6.106;2023-04-03T11:05:47;102706.69;;;20.69;50.90
58686;BME280;44465;53.206;-6.106;2023-04-03T11:08:28;102602.81;;;20.08;50.62
58686;BME280;44465;53.206;-6.106;2023-04-03T11:11:06;102669.56;;;20.54;50.73
58686;BME280;44465;53.206;-6.106;2023-04-03T11:14:03;102626.47;;;20.27;50.76
58686;BME280;44465;53.206;-6.106;2023-04-03T11:16:30;102636.81;;;20.42;50.60
58686;BME280;44465;53.206;-6.106;2023-04-03T11:19:18;102707.28;;;20.82;50.88
58686;BME280;44465;53.206;-6.106;2023-04-03T11:24:29;102660.56;;;20.58;50.96
58686;BME280;44465;53.206;-6.106;2023-04-03T11:26:58;102704.50;;;20.87;51.53
58686;BME280;44465;53.206;-6.106;2023-04-03T11:29:30;102687.88;;;20.74;51.19
58686;BME280;44465;53.206;-6.106;2023-04-03T11:34:49;102701.81;;;20.87;51.06
58686;BME280;44465;53.206;-6.106;2023-04-03T11:39:49;102649.63;;;20.67;51.34
58686;BME280;44465;53.206;-6.106;2023-04-03T11:42:24;102695.56;;;20.88;51.28
58686;BME280;44465;53.206;-6.106;2023-04-03T11:53:02;102625.00;;;20.51;51.41
58686;BME280;44465;53.206;-6.106;2023-04-03T12:51:42;102668.38;;;21.03;51.00
58686;BME280;44465;53.206;-6.106;2023-04-03T12:54:18;102661.41;;;20.96;51.15
58686;BME280;44465;53.206;-6.106;2023-04-03T12:56:45;102622.66;;;20.76;51.21
58686;BME280;44465;53.206;-6.106;2023-04-03T12:59:20;102618.25;;;20.74;51.20
58686;BME280;44465;53.206;-6.106;2023-04-03T13:02:25;102625.31;;;20.76;51.18
58686;BME280;44465;53.206;-6.106;2023-04-03T13:04:54;102569.66;;;20.53;51.30
58686;BME280;44465;53.206;-6.106;2023-04-03T13:07:31;102553.00;;;20.42;51.02
58686;BME280;44465;53.206;-6.106;2023-04-03T13:12:32;102597.69;;;20.74;51.37
58686;BME280;44465;53.206;-6.106;2023-04-03T13:15:01;102608.03;;;20.90;51.16
58686;BME280;44465;53.206;-6.106;2023-04-03T13:17:38;102568.38;;;20.68;51.01
58686;BME280;44465;53.206;-6.106;2023-04-03T13:20:13;102606.38;;;20.84;51.10
58686;BME280;44465;53.206;-6.106;2023-04-03T13:22:49;102614.25;;;20.90;50.99
58686;BME280;44465;53.206;-6.106;2023-04-03T13:25:17;102600.78;;;20.94;51.31
58686;BME280;44465;53.206;-6.106;2023-04-03T13:27:49;102583.31;;;20.79;51.13
58686;BME280;44465;53.206;-6.106;2023-04-03T13:30:27;102627.34;;;21.01;51.09
58686;BME280;44465;53.206;-6.106;2023-04-03T13:32:59;102601.81;;;20.88;51.58
58686;BME280;44465;53.206;-6.106;2023-04-03T13:37:57;102567.41;;;20.71;51.33
58686;BME280;44465;53.206;-6.106;2023-04-03T13:40:23;102597.22;;;20.93;51.27
58686;BME280;44465;53.206;-6.106;2023-04-03T13:43:04;102612.25;;;20.99;51.28
58686;BME280;44465;53.206;-6.106;2023-04-03T13:45:31;102587.66;;;20.84;51.20
58686;BME280;44465;53.206;-6.106;2023-04-03T13:48:27;102603.34;;;20.97;51.45
58686;BME280;44465;53.206;-6.106;2023-04-03T13:51:03;102649.03;;;21.25;51.94
58686;BME280;44465;53.206;-6.106;2023-04-03T13:53:31;102596.97;;;21.02;51.51
58686;BME280;44465;53.206;-6.106;2023-04-03T13:58:30;102568.84;;;20.86;51.66
58686;BME280;44465;53.206;-6.106;2023-04-03T14:01:10;102635.63;;;21.27;51.80
58686;BME280;44465;53.206;-6.106;2023-04-03T14:03:53;102624.84;;;21.28;51.58
58686;BME280;44465;53.206;-6.106;2023-04-03T14:06:19;102545.91;;;20.75;51.60
58686;BME280;44465;53.206;-6.106;2023-04-03T14:08:46;102624.28;;;21.17;51.41
58686;BME280;44465;53.206;-6.106;2023-04-03T14:11:20;102589.69;;;21.07;51.68
58686;BME280;44465;53.206;-6.106;2023-04-03T14:13:48;102554.69;;;20.81;51.59
58686;BME280;44465;53.206;-6.106;2023-04-03T14:16:17;102536.16;;;20.71;51.58
58686;BME280;44465;53.206;-6.106;2023-04-03T14:18:47;102554.69;;;20.81;51.38
58686;BME280;44465;53.206;-6.106;2023-04-03T14:21:15;102526.38;;;20.70;51.79
58686;BME280;44465;53.206;-6.106;2023-04-03T14:23:41;102550.16;;;20.84;51.46
58686;BME280;44465;53.206;-6.106;2023-04-03T14:26:13;102582.56;;;21.06;51.58
58686;BME280;44465;53.206;-6.106;2023-04-03T14:28:39;102535.81;;;20.85;51.56
58686;BME280;44465;53.206;-6.106;2023-04-03T14:31:06;102535.94;;;20.81;51.30
58686;BME280;44465;53.206;-6.106;2023-04-03T14:33:32;102591.25;;;21.16;51.20
58686;BME280;44465;53.206;-6.106;2023-04-03T14:36:00;102532.31;;;20.83;51.52
58686;BME280;44465;53.206;-6.106;2023-04-03T14:38:30;102572.56;;;21.13;51.39
58686;BME280;44465;53.206;-6.106;2023-04-03T14:40:57;102508.34;;;20.79;51.34
58686;BME280;44465;53.206;-6.106;2023-04-03T14:43:23;102521.25;;;20.96;51.29
58686;BME280;44465;53.206;-6.106;2023-04-03T14:45:50;102560.81;;;21.19;50.87
58686;BME280;44465;53.206;-6.106;2023-04-03T14:48:24;102536.91;;;21.11;51.17
58686;BME280;44465;53.206;-6.106;2023-04-03T14:50:54;102484.91;;;20.87;50.97
58686;BME280;44465;53.206;-6.106;2023-04-03T14:53:23;102505.56;;;21.15;50.87
58686;BME280;44465;53.206;-6.106;2023-04-03T14:55:51;102585.69;;;21.56;51.01
58686;BME280;44465;53.206;-6.106;2023-04-03T14:58:19;102577.69;;;21.84;50.59
58686;BME280;44465;53.206;-6.106;2023-04-03T15:00:45;102592.78;;;21.88;50.66
58686;BME280;44465;53.206;-6.106;2023-04-03T15:03:20;102596.84;;;21.72;50.86
58686;BME280;44465;53.206;-6.106;2023-04-03T15:05:47;102532.56;;;21.38;51.02
58686;BME280;44465;53.206;-6.106;2023-04-03T15:08:25;102544.13;;;21.41;51.26
58686;BME280;44465;53.206;-6.106;2023-04-03T15:10:51;102567.78;;;21.56;51.03
58686;BME280;44465;53.206;-6.106;2023-04-03T15:13:19;102500.97;;;21.18;51.40
58686;BME280;44465;53.206;-6.106;2023-04-03T15:15:45;102515.72;;;21.33;51.46
58686;BME280;44465;53.206;-6.106;2023-04-03T15:18:15;102480.44;;;21.19;51.65
58686;BME280;44465;53.206;-6.106;2023-04-03T15:20:42;102510.66;;;21.54;50.84
58686;BME280;44465;53.206;-6.106;2023-04-03T15:23:10;102559.16;;;22.05;50.91
58686;BME280;44465;53.206;-6.106;2023-04-03T15:25:36;102533.78;;;21.88;50.74
58686;BME280;44465;53.206;-6.106;2023-04-03T15:28:02;102477.84;;;21.76;50.41
58686;BME280;44465;53.206;-6.106;2023-04-03T15:30:27;102534.47;;;21.95;50.89
58686;BME280;44465;53.206;-6.106;2023-04-03T15:32:53;102566.25;;;22.07;51.11
58686;BME280;44465;53.206;-6.106;2023-04-03T15:35:18;102494.19;;;21.68;50.83
58686;BME280;44465;53.206;-6.106;2023-04-03T15:37:44;102454.41;;;21.52;51.35
58686;BME280;44465;53.206;-6.106;2023-04-03T15:40:10;102522.56;;;22.04;51.33
58686;BME280;44465;53.206;-6.106;2023-04-03T15:42:36;102543.06;;;22.05;51.38
58686;BME280;44465;53.206;-6.106;2023-04-03T15:45:01;102459.72;;;21.54;51.38
58686;BME280;44465;53.206;-6.106;2023-04-03T15:47:27;102473.53;;;21.72;51.30
58686;BME280;44465;53.206;-6.106;2023-04-03T15:49:54;102505.09;;;21.90;51.37